Shelby, Alabama
Current Conditions -  °F | °C
As of 9:53 AM on Thursday 30 Oct 2014 (Local Time) from KEET Reporting Station
Clear Clear  
Wind Chill: 61°   Ceiling: Unl
Heat Index: 61°   Visibility: 10mi
Dew Point: 42°   Wind: 3mph
Humidity: 50%   Direction: NA
Pressure: 30.14"   Gusts: NA
Location:  33.11°N, 86.58°W
Report Text: KEET 301453Z AUTO VRB03KT 10SM CLR 16/06 A3014 RMK AO2 SLP203 T01610056 51007
Loading
Personal Weather Stations






























Interactive Weather Map
Tropical Storm Tracking
New forecast layout! Learn more

10-Day Weather Forecast

Advertisements
Track Severe Weather on mobile